createdAt,value
2023-02-11T00:01:36.310Z,-8.56
2023-02-11T00:04:06.845Z,-8.54
2023-02-11T00:06:36.277Z,-8.52
2023-02-11T00:09:04.854Z,-8.56
2023-02-11T00:11:33.639Z,-8.63
2023-02-11T00:14:05.217Z,-8.62
2023-02-11T00:16:33.779Z,-8.54
2023-02-11T00:19:03.494Z,-8.47
2023-02-11T00:21:31.659Z,-8.48
2023-02-11T00:24:02.403Z,-8.48
2023-02-11T00:26:33.639Z,-8.44
2023-02-11T00:29:02.682Z,-8.35
2023-02-11T00:31:34.087Z,-8.22
2023-02-11T00:34:02.763Z,-8.16
2023-02-11T00:36:31.265Z,-8.20
2023-02-11T00:39:00.172Z,-8.29
2023-02-11T00:41:29.960Z,-8.24
2023-02-11T00:44:02.465Z,-8.21
2023-02-11T00:46:30.950Z,-8.28
2023-02-11T00:48:59.685Z,-8.38
2023-02-11T00:51:29.224Z,-8.49
2023-02-11T00:53:57.673Z,-8.57
2023-02-11T00:56:26.255Z,-8.48
2023-02-11T00:58:54.445Z,-8.42
2023-02-11T01:01:22.767Z,-8.44
2023-02-11T01:03:51.188Z,-8.49
2023-02-11T01:06:20.002Z,-8.50
2023-02-11T01:08:48.352Z,-8.42
2023-02-11T01:11:20.400Z,-8.34
2023-02-11T01:13:49.949Z,-8.26
2023-02-11T01:16:20.175Z,-8.19
2023-02-11T01:18:48.948Z,-8.12
2023-02-11T01:21:19.562Z,-8.14
2023-02-11T01:23:47.845Z,-8.23
2023-02-11T01:26:16.643Z,-8.39
2023-02-11T01:28:44.913Z,-8.43
2023-02-11T01:31:13.299Z,-8.42
2023-02-11T01:33:41.874Z,-8.45
2023-02-11T01:36:11.969Z,-8.44
2023-02-11T01:38:41.187Z,-8.42
2023-02-11T01:41:12.902Z,-8.43
2023-02-11T01:43:45.146Z,-8.37
2023-02-11T01:46:31.465Z,-8.32
2023-02-11T01:49:02.785Z,-8.28
2023-02-11T01:51:36.762Z,-8.29
2023-02-11T01:54:26.564Z,-8.25
2023-02-11T01:57:16.225Z,-8.23
2023-02-11T01:59:54.667Z,-8.32
2023-02-11T02:02:35.408Z,-8.33
2023-02-11T02:05:20.375Z,-8.23
2023-02-11T02:08:11.998Z,-8.20
2023-02-11T02:10:44.698Z,-8.25
2023-02-11T02:13:14.601Z,-8.35
2023-02-11T02:15:50.796Z,-8.44
2023-02-11T02:18:34.485Z,-8.51
2023-02-11T02:21:14.027Z,-8.61
2023-02-11T02:23:42.197Z,-8.66
2023-02-11T02:26:28.503Z,-8.65
2023-02-11T02:29:22.885Z,-8.52
2023-02-11T02:31:54.211Z,-8.50
2023-02-11T02:34:25.270Z,-8.60
2023-02-11T02:37:06.962Z,-8.65
2023-02-11T02:39:37.640Z,-8.69
2023-02-11T02:42:06.383Z,-8.74
2023-02-11T02:44:34.965Z,-8.78
2023-02-11T02:47:03.357Z,-8.76
2023-02-11T02:49:31.621Z,-8.68
2023-02-11T02:52:34.001Z,-8.55
2023-02-11T02:55:21.123Z,-8.44
2023-02-11T02:58:09.258Z,-8.35
2023-02-11T03:01:11.334Z,-8.30
2023-02-11T03:04:02.738Z,-8.22
2023-02-11T03:06:57.648Z,-8.18
2023-02-11T03:09:36.604Z,-8.18
2023-02-11T03:12:06.492Z,-8.11
2023-02-11T03:14:36.692Z,-8.02
2023-02-11T03:17:08.056Z,-7.91
2023-02-11T03:19:43.179Z,-7.81
2023-02-11T03:22:30.825Z,-7.72
2023-02-11T03:25:00.728Z,-7.60
2023-02-11T03:27:50.344Z,-7.45
2023-02-11T03:30:26.163Z,-7.30
2023-02-11T03:33:01.327Z,-7.16
2023-02-11T03:35:36.812Z,-7.05
2023-02-11T03:38:13.213Z,-6.87
2023-02-11T03:40:45.665Z,-6.69
2023-02-11T03:43:22.883Z,-6.60
2023-02-11T03:45:54.044Z,-6.52
2023-02-11T03:48:31.415Z,-6.35
2023-02-11T03:51:03.852Z,-6.26
2023-02-11T03:53:32.257Z,-6.21
2023-02-11T03:56:05.153Z,-6.16
2023-02-11T03:58:33.315Z,-6.13
2023-02-11T04:01:02.927Z,-6.09
2023-02-11T04:03:33.374Z,-5.98
2023-02-11T04:06:02.035Z,-5.90
2023-02-11T04:08:31.851Z,-5.90
2023-02-11T04:11:00.226Z,-5.84
2023-02-11T04:13:28.397Z,-5.76
2023-02-11T04:15:56.579Z,-5.72
2023-02-11T04:18:24.845Z,-5.71
2023-02-11T04:20:53.119Z,-5.73
2023-02-11T04:23:21.400Z,-5.72
2023-02-11T04:25:50.637Z,-5.69
2023-02-11T04:28:18.930Z,-5.67
2023-02-11T04:30:47.291Z,-5.68
2023-02-11T04:33:15.529Z,-5.70
2023-02-11T04:35:43.806Z,-5.68
2023-02-11T04:38:12.186Z,-5.67
2023-02-11T04:40:41.358Z,-5.67
2023-02-11T04:43:09.551Z,-5.67
2023-02-11T04:45:37.941Z,-5.65
2023-02-11T04:48:06.418Z,-5.71
2023-02-11T04:50:34.599Z,-5.68
2023-02-11T04:53:02.764Z,-5.67
2023-02-11T04:55:31.037Z,-5.69
2023-02-11T04:57:59.213Z,-5.70
2023-02-11T05:00:27.386Z,-5.69
2023-02-11T05:02:55.554Z,-5.68
2023-02-11T05:05:24.042Z,-5.71
2023-02-11T05:07:52.415Z,-5.70
2023-02-11T05:10:20.696Z,-5.68
2023-02-11T05:12:49.836Z,-5.71
2023-02-11T05:15:18.060Z,-5.73
2023-02-11T05:17:46.849Z,-5.72
2023-02-11T05:20:15.330Z,-5.70
2023-02-11T05:22:43.706Z,-5.73
2023-02-11T05:25:12.189Z,-5.70
2023-02-11T05:27:40.565Z,-5.68
2023-02-11T05:30:09.762Z,-5.67
2023-02-11T05:32:38.049Z,-5.71
2023-02-11T05:35:06.725Z,-5.76
2023-02-11T05:37:35.239Z,-5.74
2023-02-11T05:40:08.204Z,-5.70
2023-02-11T05:42:36.364Z,-5.66
2023-02-11T05:45:05.665Z,-5.60
2023-02-11T05:47:34.041Z,-5.54
2023-02-11T05:50:02.351Z,-5.50
2023-02-11T05:52:30.598Z,-5.50
2023-02-11T05:54:58.879Z,-5.51
2023-02-11T05:57:27.248Z,-5.49
2023-02-11T05:59:55.424Z,-5.43
2023-02-11T06:02:23.752Z,-5.38
2023-02-11T06:04:52.078Z,-5.33
2023-02-11T06:07:20.368Z,-5.29
2023-02-11T06:09:48.634Z,-5.22
2023-02-11T06:12:17.110Z,-5.17
2023-02-11T06:14:45.282Z,-5.12
2023-02-11T06:17:15.650Z,-5.08
2023-02-11T06:19:44.600Z,-5.01
2023-02-11T06:22:12.882Z,-4.95
2023-02-11T06:24:59.831Z,-4.88
2023-02-11T06:27:30.317Z,-4.78
2023-02-11T06:29:58.695Z,-4.70
2023-02-11T06:32:43.925Z,-4.58
2023-02-11T06:35:14.838Z,-4.43
2023-02-11T06:37:43.340Z,-4.26
2023-02-11T06:40:12.506Z,-4.16
2023-02-11T06:42:40.973Z,-4.03
2023-02-11T06:45:11.174Z,-3.86
2023-02-11T06:47:40.803Z,-3.65
2023-02-11T06:50:12.450Z,-3.25
2023-02-11T06:52:41.237Z,-2.20
2023-02-11T06:55:09.517Z,-0.93
2023-02-11T06:57:37.789Z,0.17
2023-02-11T07:00:06.930Z,1.08
2023-02-11T07:02:36.041Z,1.85
2023-02-11T07:05:07.120Z,2.62
2023-02-11T07:07:35.787Z,3.05
2023-02-11T07:10:06.031Z,3.72
2023-02-11T07:12:34.615Z,4.24
2023-02-11T07:15:03.612Z,4.81
2023-02-11T07:17:32.103Z,4.65
2023-02-11T07:20:00.382Z,5.21
2023-02-11T07:22:28.643Z,5.61
2023-02-11T07:24:56.926Z,6.32
2023-02-11T07:27:25.356Z,6.97
2023-02-11T07:29:53.671Z,7.47
2023-02-11T07:32:22.049Z,7.78
2023-02-11T07:34:50.259Z,8.45
2023-02-11T07:37:19.627Z,8.66
2023-02-11T07:39:47.907Z,8.44
2023-02-11T07:42:16.382Z,8.33
2023-02-11T07:44:50.031Z,8.58
2023-02-11T07:47:18.871Z,9.03
2023-02-11T07:49:47.974Z,9.86
2023-02-11T07:52:16.141Z,9.57
2023-02-11T07:54:46.979Z,10.10
2023-02-11T07:57:15.148Z,10.04
2023-02-11T07:59:43.335Z,10.03
2023-02-11T08:02:11.841Z,11.30
2023-02-11T08:04:40.387Z,11.19
2023-02-11T08:07:08.557Z,11.30
2023-02-11T08:09:36.798Z,11.41
2023-02-11T08:12:05.432Z,11.91
2023-02-11T08:14:33.596Z,12.06
2023-02-11T08:17:01.765Z,12.69
2023-02-11T08:19:29.982Z,12.50
2023-02-11T08:21:58.621Z,13.08
2023-02-11T08:24:26.869Z,13.66
2023-02-11T08:26:55.075Z,13.49
2023-02-11T08:29:23.243Z,13.74
2023-02-11T08:31:51.639Z,14.09
2023-02-11T08:34:19.913Z,13.60
2023-02-11T08:36:49.098Z,13.56
2023-02-11T08:39:20.757Z,13.85
2023-02-11T08:41:52.506Z,13.81
2023-02-11T08:44:22.122Z,13.84
2023-02-11T08:46:51.413Z,13.58
2023-02-11T08:49:19.959Z,13.29
2023-02-11T08:51:49.200Z,13.10
2023-02-11T08:54:17.987Z,13.05
2023-02-11T08:56:46.266Z,12.53
2023-02-11T08:59:15.757Z,11.84
2023-02-11T09:01:44.664Z,11.01
2023-02-11T09:04:13.255Z,10.60
2023-02-11T09:06:41.922Z,10.68
2023-02-11T09:09:15.092Z,10.61
2023-02-11T09:11:45.028Z,10.45
2023-02-11T09:14:19.565Z,10.91
2023-02-11T09:16:48.569Z,10.86
2023-02-11T09:19:18.010Z,10.20
2023-02-11T09:21:46.428Z,10.08
2023-02-11T09:24:15.531Z,9.97
2023-02-11T09:26:43.934Z,9.87
2023-02-11T09:29:12.801Z,9.78
2023-02-11T09:31:41.381Z,9.90
2023-02-11T09:34:11.597Z,9.81
2023-02-11T09:36:41.114Z,9.57
2023-02-11T09:39:14.765Z,9.46
2023-02-11T09:41:45.947Z,9.22
2023-02-11T09:44:29.666Z,8.90
2023-02-11T09:47:05.033Z,8.49
2023-02-11T09:49:44.565Z,8.33
2023-02-11T09:52:18.959Z,8.27
2023-02-11T09:54:59.204Z,8.09
2023-02-11T09:57:34.404Z,8.05
2023-02-11T10:00:17.825Z,7.93
2023-02-11T10:02:55.001Z,7.84
2023-02-11T10:05:43.877Z,8.04
2023-02-11T10:08:17.502Z,8.19
2023-02-11T10:10:57.814Z,8.33
2023-02-11T10:13:42.653Z,8.31
2023-02-11T10:16:25.200Z,7.95
2023-02-11T10:19:44.671Z,7.76
2023-02-11T10:22:21.654Z,7.45
2023-02-11T10:25:00.551Z,7.19
2023-02-11T10:27:33.523Z,7.06
2023-02-11T10:30:16.280Z,6.83
2023-02-11T10:32:51.580Z,6.53
2023-02-11T10:35:22.839Z,6.34
2023-02-11T10:37:51.143Z,6.19
2023-02-11T10:40:26.176Z,6.05
2023-02-11T10:42:59.378Z,5.94
2023-02-11T10:45:37.307Z,5.84
2023-02-11T10:48:26.638Z,5.67
2023-02-11T10:51:34.345Z,5.39
2023-02-11T10:54:05.583Z,5.29
2023-02-11T10:56:41.133Z,5.37
2023-02-11T10:59:40.481Z,5.38
2023-02-11T11:02:32.282Z,5.49
2023-02-11T11:05:16.261Z,5.59
2023-02-11T11:07:57.047Z,5.52
2023-02-11T11:10:35.900Z,5.55
2023-02-11T11:13:04.170Z,5.65
2023-02-11T11:15:32.857Z,5.76
2023-02-11T11:18:22.476Z,5.82
2023-02-11T11:21:01.428Z,5.70
2023-02-11T11:23:30.945Z,5.56
2023-02-11T11:26:04.981Z,5.51
2023-02-11T11:28:52.395Z,5.38
2023-02-11T11:31:46.811Z,5.29
2023-02-11T11:34:29.094Z,5.11
2023-02-11T11:36:59.724Z,5.09
2023-02-11T11:39:35.142Z,5.07
2023-02-11T11:42:06.486Z,4.97
2023-02-11T11:44:40.078Z,4.89
2023-02-11T11:47:11.359Z,4.94
2023-02-11T11:49:49.668Z,4.99
2023-02-11T11:52:33.626Z,5.00
2023-02-11T11:55:42.521Z,4.99
2023-02-11T11:58:19.318Z,4.96
2023-02-11T12:01:03.567Z,4.89
2023-02-11T12:04:03.055Z,4.79
2023-02-11T12:06:47.605Z,4.80
2023-02-11T12:09:37.316Z,4.80
2023-02-11T12:12:35.074Z,4.75
2023-02-11T12:15:55.583Z,4.70
2023-02-11T12:18:54.396Z,4.60
2023-02-11T12:21:33.808Z,4.63
2023-02-11T12:24:33.519Z,4.54
2023-02-11T12:27:11.226Z,4.48
2023-02-11T12:30:04.989Z,4.42
2023-02-11T12:32:53.651Z,4.43
2023-02-11T12:36:07.487Z,4.39
2023-02-11T12:39:14.485Z,4.33
2023-02-11T12:42:30.882Z,4.35
2023-02-11T12:45:09.704Z,4.44
2023-02-11T12:48:06.849Z,4.46
2023-02-11T12:51:16.501Z,4.43
2023-02-11T12:53:54.911Z,4.36
2023-02-11T12:56:42.531Z,4.34
2023-02-11T12:59:37.851Z,4.33
2023-02-11T13:02:18.041Z,4.28
2023-02-11T13:04:57.544Z,4.20
2023-02-11T13:07:33.761Z,4.11
2023-02-11T13:10:14.378Z,4.03
2023-02-11T13:13:05.792Z,3.97
2023-02-11T13:15:34.070Z,3.91
2023-02-11T13:18:50.577Z,3.86
2023-02-11T13:21:38.720Z,3.77
2023-02-11T13:24:23.992Z,3.72
2023-02-11T13:27:04.655Z,3.68
2023-02-11T13:30:12.981Z,3.63
2023-02-11T13:32:56.919Z,3.58
2023-02-11T13:35:32.123Z,3.53
2023-02-11T13:38:21.935Z,3.48
2023-02-11T13:41:24.927Z,3.44
2023-02-11T13:44:11.832Z,3.42
2023-02-11T13:46:54.322Z,3.40
2023-02-11T13:49:41.779Z,3.40
2023-02-11T13:52:22.154Z,3.39
2023-02-11T13:54:53.267Z,3.39
2023-02-11T13:57:21.444Z,3.40
2023-02-11T13:59:56.196Z,3.41
2023-02-11T14:02:47.989Z,3.40
2023-02-11T14:05:50.382Z,3.38
2023-02-11T14:08:43.125Z,3.33
2023-02-11T14:11:23.796Z,3.31
2023-02-11T14:13:51.884Z,3.28
2023-02-11T14:16:36.312Z,3.27
2023-02-11T14:19:06.524Z,3.23
2023-02-11T14:21:38.411Z,3.19
2023-02-11T14:24:07.241Z,3.15
2023-02-11T14:26:47.655Z,3.13
2023-02-11T14:29:31.195Z,3.08
2023-02-11T14:32:05.914Z,3.03
2023-02-11T14:34:43.302Z,2.92
2023-02-11T14:37:27.621Z,2.88
2023-02-11T14:40:18.030Z,2.82
2023-02-11T14:42:46.732Z,2.74
2023-02-11T14:45:27.505Z,2.67
2023-02-11T14:48:04.585Z,2.60
2023-02-11T14:50:42.136Z,2.52
2023-02-11T14:53:17.256Z,2.42
2023-02-11T14:55:54.483Z,2.31
2023-02-11T14:58:22.890Z,2.23
2023-02-11T15:01:00.916Z,2.11
2023-02-11T15:03:42.472Z,1.95
2023-02-11T15:06:23.859Z,1.83
2023-02-11T15:09:16.708Z,1.72
2023-02-11T15:11:48.062Z,1.62
2023-02-11T15:14:22.953Z,1.53
2023-02-11T15:16:53.929Z,1.45
2023-02-11T15:19:39.925Z,1.37
2023-02-11T15:22:30.105Z,1.25
2023-02-11T15:25:07.057Z,1.11
2023-02-11T15:27:43.883Z,0.96
2023-02-11T15:30:24.227Z,0.83
2023-02-11T15:33:00.175Z,0.70
2023-02-11T15:35:35.272Z,0.60
2023-02-11T15:38:04.427Z,0.49
2023-02-11T15:40:35.892Z,0.36
2023-02-11T15:43:06.563Z,0.25
2023-02-11T15:45:35.995Z,0.14
2023-02-11T15:48:16.868Z,0.03
2023-02-11T15:50:53.015Z,-0.06
2023-02-11T15:53:38.408Z,-0.12
2023-02-11T15:56:12.920Z,-0.23
2023-02-11T15:58:43.880Z,-0.35
2023-02-11T16:01:13.071Z,-0.44
2023-02-11T16:03:43.388Z,-0.52
2023-02-11T16:06:24.678Z,-0.62
2023-02-11T16:09:05.787Z,-0.72
2023-02-11T16:11:54.821Z,-0.83
2023-02-11T16:14:37.127Z,-0.95
2023-02-11T16:17:13.379Z,-1.08
2023-02-11T16:19:47.079Z,-1.20
2023-02-11T16:22:25.700Z,-1.34
2023-02-11T16:24:58.167Z,-1.46
2023-02-11T16:27:40.991Z,-1.54
2023-02-11T16:30:33.557Z,-1.63
2023-02-11T16:33:01.746Z,-1.72
2023-02-11T16:35:30.788Z,-1.76
2023-02-11T16:37:58.979Z,-1.81
2023-02-11T16:40:27.247Z,-1.86
2023-02-11T16:42:56.137Z,-1.93
2023-02-11T16:45:24.417Z,-1.98
2023-02-11T16:47:52.585Z,-2.03
2023-02-11T16:50:25.489Z,-2.09
2023-02-11T16:52:54.156Z,-2.14
2023-02-11T16:55:22.406Z,-2.18
2023-02-11T16:57:50.718Z,-2.22
2023-02-11T17:00:19.702Z,-2.29
2023-02-11T17:02:48.084Z,-2.36
2023-02-11T17:05:26.065Z,-2.42
2023-02-11T17:07:54.356Z,-2.51
2023-02-11T17:10:24.029Z,-2.58
2023-02-11T17:12:53.713Z,-2.64
2023-02-11T17:15:21.945Z,-2.69
2023-02-11T17:17:50.128Z,-2.74
2023-02-11T17:20:20.637Z,-2.79
2023-02-11T17:22:48.916Z,-2.85
2023-02-11T17:25:18.167Z,-2.90
2023-02-11T17:27:46.398Z,-2.94
2023-02-11T17:30:15.185Z,-2.99
2023-02-11T17:32:43.358Z,-3.02
2023-02-11T17:35:11.738Z,-3.05
2023-02-11T17:37:40.832Z,-3.06
2023-02-11T17:40:09.803Z,-3.10
2023-02-11T17:42:37.996Z,-3.16
2023-02-11T17:45:06.999Z,-3.24
2023-02-11T17:47:36.166Z,-3.32
2023-02-11T17:50:05.186Z,-3.36
2023-02-11T17:52:33.353Z,-3.39
2023-02-11T17:55:01.532Z,-3.41
2023-02-11T17:57:29.907Z,-3.43
2023-02-11T17:59:58.289Z,-3.44
2023-02-11T18:02:26.457Z,-3.46
2023-02-11T18:04:57.799Z,-3.50
2023-02-11T18:07:27.003Z,-3.55
2023-02-11T18:09:55.179Z,-3.60
2023-02-11T18:12:26.531Z,-3.66
2023-02-11T18:14:57.879Z,-3.70
2023-02-11T18:17:26.562Z,-3.72
2023-02-11T18:19:58.323Z,-3.72
2023-02-11T18:22:27.210Z,-3.72
2023-02-11T18:24:55.504Z,-3.74
2023-02-11T18:27:23.775Z,-3.75
2023-02-11T18:29:52.139Z,-3.77
2023-02-11T18:32:20.310Z,-3.79
2023-02-11T18:34:48.493Z,-3.78
2023-02-11T18:37:17.275Z,-3.77
2023-02-11T18:39:45.456Z,-3.76
2023-02-11T18:42:13.615Z,-3.73
2023-02-11T18:44:41.707Z,-3.69
2023-02-11T18:47:09.768Z,-3.64
2023-02-11T18:49:37.983Z,-3.60
2023-02-11T18:52:06.117Z,-3.56
2023-02-11T18:54:34.388Z,-3.54
2023-02-11T18:57:02.555Z,-3.53
2023-02-11T18:59:30.744Z,-3.53
2023-02-11T19:01:59.015Z,-3.51
2023-02-11T19:04:27.340Z,-3.52
2023-02-11T19:06:55.667Z,-3.51
2023-02-11T19:09:24.057Z,-3.51
2023-02-11T19:11:54.441Z,-3.48
2023-02-11T19:14:25.442Z,-3.44
2023-02-11T19:16:56.822Z,-3.41
2023-02-11T19:19:28.408Z,-3.38
2023-02-11T19:21:57.833Z,-3.27
2023-02-11T19:24:27.495Z,-3.19
2023-02-11T19:26:58.468Z,-3.10
2023-02-11T19:29:27.155Z,-3.02
2023-02-11T19:31:55.387Z,-2.94
2023-02-11T19:34:24.126Z,-2.85
2023-02-11T19:36:53.526Z,-2.77
2023-02-11T19:39:24.146Z,-2.70
2023-02-11T19:41:52.741Z,-2.63
2023-02-11T19:44:21.006Z,-2.57
2023-02-11T19:46:50.503Z,-2.50
2023-02-11T19:49:23.523Z,-2.45
2023-02-11T19:51:52.304Z,-2.38
2023-02-11T19:54:21.374Z,-2.33
2023-02-11T19:56:49.659Z,-2.25
2023-02-11T19:59:17.938Z,-2.19
2023-02-11T20:01:48.044Z,-2.12
2023-02-11T20:04:17.345Z,-2.04
2023-02-11T20:06:48.395Z,-1.97
2023-02-11T20:09:16.872Z,-1.91
2023-02-11T20:11:45.224Z,-1.84
2023-02-11T20:14:15.311Z,-1.80
2023-02-11T20:16:49.282Z,-1.75
2023-02-11T20:19:21.670Z,-1.69
2023-02-11T20:21:53.197Z,-1.63
2023-02-11T20:24:22.761Z,-1.58
2023-02-11T20:26:55.617Z,-1.52
2023-02-11T20:29:24.675Z,-1.47
2023-02-11T20:31:53.734Z,-1.44
2023-02-11T20:34:22.482Z,-1.40
2023-02-11T20:36:55.058Z,-1.38
2023-02-11T20:39:25.099Z,-1.36
2023-02-11T20:41:54.110Z,-1.36
2023-02-11T20:44:23.252Z,-1.34
2023-02-11T20:46:54.237Z,-1.31
2023-02-11T20:49:25.173Z,-1.29
2023-02-11T20:51:54.099Z,-1.24
2023-02-11T20:54:24.333Z,-1.22
2023-02-11T20:56:58.472Z,-1.20
2023-02-11T20:59:27.132Z,-1.17
2023-02-11T21:01:56.817Z,-1.19
2023-02-11T21:04:27.790Z,-1.18
2023-02-11T21:06:58.869Z,-1.18
2023-02-11T21:09:30.459Z,-1.17
2023-02-11T21:11:58.652Z,-1.13
2023-02-11T21:14:28.451Z,-1.08
2023-02-11T21:16:57.704Z,-1.04
2023-02-11T21:19:26.361Z,-1.00
2023-02-11T21:21:55.510Z,-0.93
2023-02-11T21:24:24.078Z,-0.89
2023-02-11T21:26:52.374Z,-0.86
2023-02-11T21:29:20.512Z,-0.84
2023-02-11T21:31:49.070Z,-0.79
2023-02-11T21:34:17.332Z,-0.76
2023-02-11T21:36:45.715Z,-0.73
2023-02-11T21:39:14.091Z,-0.71
2023-02-11T21:41:42.670Z,-0.69
2023-02-11T21:44:11.071Z,-0.68
2023-02-11T21:46:39.475Z,-0.65
2023-02-11T21:49:07.813Z,-0.64
2023-02-11T21:51:36.511Z,-0.62
2023-02-11T21:54:05.083Z,-0.61
2023-02-11T21:56:35.262Z,-0.59
2023-02-11T21:59:03.788Z,-0.56
2023-02-11T22:01:35.398Z,-0.55
2023-02-11T22:04:04.155Z,-0.52
2023-02-11T22:06:34.662Z,-0.51
2023-02-11T22:09:06.724Z,-0.49
2023-02-11T22:11:35.506Z,-0.45
2023-02-11T22:14:04.361Z,-0.43
2023-02-11T22:16:32.784Z,-0.42
2023-02-11T22:19:02.656Z,-0.39
2023-02-11T22:21:31.081Z,-0.38
2023-02-11T22:23:59.355Z,-0.35
2023-02-11T22:26:28.555Z,-0.31
2023-02-11T22:28:57.131Z,-0.29
2023-02-11T22:31:30.264Z,-0.27
2023-02-11T22:33:58.799Z,-0.25
2023-02-11T22:36:35.855Z,-0.24
2023-02-11T22:39:07.392Z,-0.21
2023-02-11T22:41:35.586Z,-0.18
2023-02-11T22:44:04.555Z,-0.13
2023-02-11T22:46:32.963Z,-0.12
2023-02-11T22:49:01.135Z,-0.11
2023-02-11T22:51:30.065Z,-0.09
2023-02-11T22:54:00.899Z,-0.06
2023-02-11T22:56:31.047Z,-0.02
2023-02-11T22:59:01.716Z,0.02
2023-02-11T23:01:30.616Z,0.03
2023-02-11T23:04:04.127Z,0.07
2023-02-11T23:06:32.586Z,0.13
2023-02-11T23:09:00.963Z,0.18
2023-02-11T23:11:31.596Z,0.24
2023-02-11T23:14:01.928Z,0.27
2023-02-11T23:16:32.708Z,0.30
2023-02-11T23:19:08.100Z,0.34
2023-02-11T23:21:38.326Z,0.39
2023-02-11T23:24:12.945Z,0.41
2023-02-11T23:26:43.580Z,0.42
2023-02-11T23:29:12.464Z,0.42
2023-02-11T23:31:45.396Z,0.42
2023-02-11T23:34:20.439Z,0.42
2023-02-11T23:36:48.679Z,0.42
2023-02-11T23:39:17.348Z,0.40
2023-02-11T23:41:46.544Z,0.39
2023-02-11T23:44:14.935Z,0.38
2023-02-11T23:46:43.319Z,0.38
2023-02-11T23:49:11.789Z,0.36
2023-02-11T23:51:40.166Z,0.33
2023-02-11T23:54:12.393Z,0.31
2023-02-11T23:56:42.556Z,0.28
2023-02-11T23:59:11.851Z,0.27
